createdAt,value
2024-02-14T00:00:03.882Z,84.27
2024-02-14T00:02:07.245Z,84.75
2024-02-14T00:04:09.528Z,84.30
2024-02-14T00:06:13.374Z,84.48
2024-02-14T00:08:16.196Z,84.33
2024-02-14T00:10:18.355Z,84.45
2024-02-14T00:12:20.605Z,84.36
2024-02-14T00:14:22.823Z,84.52
2024-02-14T00:16:25.000Z,84.54
2024-02-14T00:18:27.601Z,84.53
2024-02-14T00:20:30.045Z,84.30
2024-02-14T00:22:32.850Z,84.39
2024-02-14T00:24:37.054Z,84.46
2024-02-14T00:26:40.826Z,84.18
2024-02-14T00:28:43.236Z,84.15
2024-02-14T00:30:45.343Z,84.13
2024-02-14T00:32:47.671Z,84.19
2024-02-14T00:34:51.510Z,84.08
2024-02-14T00:36:53.806Z,84.34
2024-02-14T00:38:55.971Z,84.09
2024-02-14T00:40:58.758Z,84.39
2024-02-14T00:43:00.863Z,84.15
2024-02-14T00:45:04.453Z,84.40
2024-02-14T00:47:06.681Z,84.33
2024-02-14T00:49:08.948Z,84.34
2024-02-14T00:51:11.754Z,84.50
2024-02-14T00:53:14.451Z,84.78
2024-02-14T00:55:16.665Z,84.55
2024-02-14T00:57:20.531Z,84.45
2024-02-14T00:59:22.750Z,84.44
2024-02-14T01:01:24.975Z,84.24
2024-02-14T01:03:27.750Z,83.97
2024-02-14T01:05:30.100Z,84.27
2024-02-14T01:07:32.830Z,84.41
2024-02-14T01:09:35.024Z,84.54
2024-02-14T01:11:39.781Z,84.45
2024-02-14T01:13:42.725Z,84.77
2024-02-14T01:15:44.849Z,84.89
2024-02-14T01:17:48.897Z,84.72
2024-02-14T01:19:51.366Z,84.73
2024-02-14T01:21:53.563Z,84.59
2024-02-14T01:23:55.738Z,84.68
2024-02-14T01:25:57.972Z,84.81
2024-02-14T01:28:01.094Z,84.83
2024-02-14T01:30:03.477Z,84.63
2024-02-14T01:32:06.148Z,85.02
2024-02-14T01:34:08.310Z,85.34
2024-02-14T01:36:10.666Z,85.24
2024-02-14T01:38:14.053Z,85.20
2024-02-14T01:40:16.494Z,84.92
2024-02-14T01:42:18.906Z,84.67
2024-02-14T01:44:22.079Z,85.17
2024-02-14T01:46:24.268Z,85.35
2024-02-14T01:48:26.496Z,85.40
2024-02-14T01:50:33.030Z,85.13
2024-02-14T01:52:36.418Z,84.95
2024-02-14T01:54:38.537Z,85.08
2024-02-14T01:56:41.442Z,85.29
2024-02-14T01:58:44.225Z,84.88
2024-02-14T02:00:46.377Z,85.15
2024-02-14T02:02:49.016Z,85.00
2024-02-14T02:04:51.989Z,85.22
2024-02-14T02:06:57.859Z,85.00
2024-02-14T02:09:01.078Z,84.85
2024-02-14T02:11:03.333Z,85.13
2024-02-14T02:13:05.552Z,85.10
2024-02-14T02:15:08.883Z,85.02
2024-02-14T02:17:13.832Z,84.90
2024-02-14T02:19:17.230Z,85.24
2024-02-14T02:21:24.692Z,85.54
2024-02-14T02:23:27.065Z,85.30
2024-02-14T02:25:29.305Z,85.41
2024-02-14T02:27:31.472Z,85.53
2024-02-14T02:29:33.956Z,85.53
2024-02-14T02:31:36.796Z,85.53
2024-02-14T02:33:39.210Z,85.31
2024-02-14T02:35:43.495Z,85.91
2024-02-14T02:37:47.013Z,85.37
2024-02-14T02:39:49.224Z,85.71
2024-02-14T02:41:51.697Z,86.22
2024-02-14T02:43:55.715Z,85.95
2024-02-14T02:45:59.244Z,85.76
2024-02-14T02:48:02.844Z,85.96
2024-02-14T02:50:05.865Z,86.18
2024-02-14T02:52:07.941Z,86.00
2024-02-14T02:54:11.260Z,86.09
2024-02-14T02:56:13.772Z,86.31
2024-02-14T02:58:16.235Z,86.37
2024-02-14T03:00:22.789Z,86.11
2024-02-14T03:02:26.747Z,85.77
2024-02-14T03:04:41.207Z,85.69
2024-02-14T03:06:51.315Z,86.10
2024-02-14T03:08:55.075Z,85.97
2024-02-14T03:11:00.509Z,86.05
2024-02-14T03:13:02.648Z,85.94
2024-02-14T03:15:11.643Z,86.18
2024-02-14T03:17:13.982Z,85.99
2024-02-14T03:19:16.144Z,86.08
2024-02-14T03:21:18.346Z,85.89
2024-02-14T03:23:20.863Z,85.98
2024-02-14T03:25:24.991Z,85.98
2024-02-14T03:27:28.157Z,85.69
2024-02-14T03:29:30.715Z,85.71
2024-02-14T03:31:32.858Z,86.07
2024-02-14T03:33:35.251Z,85.56
2024-02-14T03:35:37.558Z,85.89
2024-02-14T03:37:40.801Z,85.51
2024-02-14T03:39:42.884Z,85.76
2024-02-14T03:41:44.953Z,85.67
2024-02-14T03:43:47.034Z,85.84
2024-02-14T03:45:49.243Z,85.94
2024-02-14T03:47:51.484Z,86.07
2024-02-14T03:49:53.635Z,86.40
2024-02-14T03:51:56.020Z,86.26
2024-02-14T03:53:58.166Z,86.20
2024-02-14T03:56:00.426Z,86.40
2024-02-14T03:58:02.637Z,86.32
2024-02-14T04:00:08.861Z,86.40
2024-02-14T04:02:11.554Z,86.70
2024-02-14T04:04:13.958Z,86.89
2024-02-14T04:06:16.307Z,86.93
2024-02-14T04:08:19.232Z,87.15
2024-02-14T04:10:21.845Z,87.25
2024-02-14T04:12:24.073Z,87.19
2024-02-14T04:14:26.558Z,87.07
2024-02-14T04:16:28.774Z,87.21
2024-02-14T04:18:31.079Z,87.05
2024-02-14T04:20:33.376Z,86.96
2024-02-14T04:22:35.607Z,86.82
2024-02-14T04:24:37.861Z,87.18
2024-02-14T04:26:40.271Z,87.28
2024-02-14T04:28:42.528Z,87.79
2024-02-14T04:30:44.658Z,87.63
2024-02-14T04:32:46.896Z,87.81
2024-02-14T04:34:50.563Z,87.79
2024-02-14T04:36:52.903Z,87.33
2024-02-14T04:38:57.036Z,87.53
2024-02-14T04:40:59.765Z,87.41
2024-02-14T04:43:01.983Z,87.41
2024-02-14T04:45:04.562Z,87.53
2024-02-14T04:47:06.804Z,87.60
2024-02-14T04:49:09.757Z,87.46
2024-02-14T04:51:12.113Z,87.38
2024-02-14T04:53:14.448Z,87.52
2024-02-14T04:55:16.626Z,87.57
2024-02-14T04:57:20.195Z,87.96
2024-02-14T04:59:22.460Z,88.21
2024-02-14T05:01:24.977Z,88.53
2024-02-14T05:03:27.396Z,88.23
2024-02-14T05:05:29.764Z,88.48
2024-02-14T05:07:31.943Z,88.63
2024-02-14T05:09:34.495Z,88.59
2024-02-14T05:11:36.573Z,88.97
2024-02-14T05:13:39.306Z,88.75
2024-02-14T05:15:41.381Z,88.38
2024-02-14T05:17:45.594Z,88.39
2024-02-14T05:19:47.873Z,88.30
2024-02-14T05:21:50.612Z,88.16
2024-02-14T05:23:52.672Z,88.24
2024-02-14T05:25:55.007Z,88.26
2024-02-14T05:27:57.178Z,88.29
2024-02-14T05:29:59.508Z,88.30
2024-02-14T05:32:01.661Z,88.21
2024-02-14T05:34:05.168Z,88.12
2024-02-14T05:36:08.145Z,88.17
2024-02-14T05:38:10.330Z,88.19
2024-02-14T05:40:12.952Z,87.99
2024-02-14T05:42:17.378Z,87.93
2024-02-14T05:44:19.568Z,87.57
2024-02-14T05:46:22.111Z,87.36
2024-02-14T05:48:24.424Z,87.79
2024-02-14T05:50:26.709Z,87.54
2024-02-14T05:52:28.979Z,87.65
2024-02-14T05:54:31.136Z,87.82
2024-02-14T05:56:33.344Z,88.20
2024-02-14T05:58:35.592Z,88.48
2024-02-14T06:00:38.109Z,88.95
2024-02-14T06:02:43.248Z,88.56
2024-02-14T06:04:45.374Z,88.33
2024-02-14T06:06:47.520Z,88.35
2024-02-14T06:08:49.782Z,88.46
2024-02-14T06:10:51.990Z,88.62
2024-02-14T06:12:54.194Z,88.38
2024-02-14T06:14:56.537Z,88.64
2024-02-14T06:16:58.750Z,88.59
2024-02-14T06:19:01.627Z,88.38
2024-02-14T06:21:04.035Z,88.27
2024-02-14T06:23:06.447Z,88.34
2024-02-14T06:25:08.976Z,88.21
2024-02-14T06:27:11.227Z,88.28
2024-02-14T06:29:13.391Z,88.36
2024-02-14T06:31:15.535Z,88.47
2024-02-14T06:33:18.133Z,88.42
2024-02-14T06:35:22.278Z,88.42
2024-02-14T06:37:24.528Z,88.23
2024-02-14T06:39:26.658Z,88.19
2024-02-14T06:41:29.020Z,88.14
2024-02-14T06:43:31.331Z,88.40
2024-02-14T06:45:34.143Z,88.37
2024-02-14T06:47:36.370Z,88.03
2024-02-14T06:49:39.494Z,87.70
2024-02-14T06:51:41.847Z,87.48
2024-02-14T06:53:44.131Z,87.28
2024-02-14T06:55:47.902Z,87.07
2024-02-14T06:57:50.237Z,87.11
2024-02-14T06:59:52.452Z,87.13
2024-02-14T07:02:05.690Z,87.26
2024-02-14T07:04:14.274Z,87.40
2024-02-14T07:06:17.086Z,87.66
2024-02-14T07:08:19.292Z,87.44
2024-02-14T07:10:21.472Z,87.33
2024-02-14T07:12:23.746Z,87.27
2024-02-14T07:14:26.053Z,87.21
2024-02-14T07:16:28.246Z,87.28
2024-02-14T07:18:30.572Z,87.11
2024-02-14T07:20:32.777Z,86.90
2024-02-14T07:22:35.406Z,86.81
2024-02-14T07:24:37.396Z,86.73
2024-02-14T07:26:41.753Z,86.53
2024-02-14T07:28:43.906Z,86.17
2024-02-14T07:30:46.163Z,85.77
2024-02-14T07:32:48.490Z,85.85
2024-02-14T07:34:50.757Z,85.54
2024-02-14T07:36:52.879Z,85.31
2024-02-14T07:38:55.045Z,84.99
2024-02-14T07:40:57.445Z,84.88
2024-02-14T07:42:59.760Z,84.55
2024-02-14T07:45:04.102Z,84.14
2024-02-14T07:47:07.790Z,84.12
2024-02-14T07:49:11.318Z,84.30
2024-02-14T07:51:13.988Z,84.10
2024-02-14T07:53:16.037Z,82.65
2024-02-14T07:55:18.164Z,83.85
2024-02-14T07:57:20.307Z,83.61
2024-02-14T07:59:22.562Z,83.30
2024-02-14T08:01:24.736Z,82.61
2024-02-14T08:03:26.855Z,83.00
2024-02-14T08:05:28.992Z,82.66
2024-02-14T08:07:31.721Z,82.19
2024-02-14T08:09:34.510Z,80.04
2024-02-14T08:11:37.504Z,81.56
2024-02-14T08:13:40.770Z,81.71
2024-02-14T08:15:42.998Z,81.05
2024-02-14T08:17:47.041Z,81.06
2024-02-14T08:19:49.837Z,80.35
2024-02-14T08:21:52.365Z,79.14
2024-02-14T08:23:55.866Z,79.95
2024-02-14T08:25:58.133Z,78.53
2024-02-14T08:28:00.216Z,79.55
2024-02-14T08:30:02.511Z,77.94
2024-02-14T08:32:06.313Z,77.95
2024-02-14T08:34:09.806Z,77.66
2024-02-14T08:36:12.170Z,77.22
2024-02-14T08:38:14.272Z,77.43
2024-02-14T08:40:16.730Z,76.97
2024-02-14T08:42:19.087Z,76.46
2024-02-14T08:44:21.317Z,76.54
2024-02-14T08:46:24.528Z,77.29
2024-02-14T08:48:28.698Z,76.42
2024-02-14T08:50:31.986Z,77.03
2024-02-14T08:52:34.407Z,75.68
2024-02-14T08:54:37.387Z,74.84
2024-02-14T08:56:39.637Z,74.90
2024-02-14T08:58:41.780Z,75.27
2024-02-14T09:00:43.999Z,75.25
2024-02-14T09:02:49.403Z,74.84
2024-02-14T09:04:52.338Z,74.75
2024-02-14T09:06:54.532Z,74.38
2024-02-14T09:08:57.334Z,74.11
2024-02-14T09:11:00.487Z,73.10
2024-02-14T09:13:03.301Z,73.32
2024-02-14T09:15:06.836Z,73.87
2024-02-14T09:17:09.071Z,74.19
2024-02-14T09:19:13.583Z,72.52
2024-02-14T09:21:18.821Z,72.89
2024-02-14T09:23:23.604Z,71.58
2024-02-14T09:25:26.589Z,70.72
2024-02-14T09:27:28.930Z,70.98
2024-02-14T09:29:31.237Z,69.98
2024-02-14T09:31:33.545Z,69.36
2024-02-14T09:33:36.307Z,69.39
2024-02-14T09:35:45.515Z,67.16
2024-02-14T09:37:47.876Z,67.98
2024-02-14T09:39:50.058Z,67.75
2024-02-14T09:41:56.745Z,67.03
2024-02-14T09:43:58.920Z,65.76
2024-02-14T09:46:01.082Z,66.80
2024-02-14T09:48:03.374Z,64.09
2024-02-14T09:50:07.549Z,65.81
2024-02-14T09:52:10.846Z,65.96
2024-02-14T09:54:13.070Z,64.82
2024-02-14T09:56:17.864Z,62.82
2024-02-14T09:58:20.282Z,61.01
2024-02-14T10:00:22.960Z,61.10
2024-02-14T10:02:25.029Z,61.00
2024-02-14T10:04:27.750Z,63.52
2024-02-14T10:06:30.206Z,61.53
2024-02-14T10:08:32.521Z,64.00
2024-02-14T10:10:37.710Z,62.33
2024-02-14T10:12:42.353Z,61.50
2024-02-14T10:14:44.662Z,62.55
2024-02-14T10:16:46.948Z,60.95
2024-02-14T10:18:49.278Z,61.68
2024-02-14T10:20:59.071Z,59.39
2024-02-14T10:23:04.924Z,58.68
2024-02-14T10:25:09.990Z,60.33
2024-02-14T10:27:13.568Z,59.37
2024-02-14T10:29:16.486Z,57.60
2024-02-14T10:31:18.759Z,58.59
2024-02-14T10:33:27.711Z,57.72
2024-02-14T10:35:33.019Z,58.12
2024-02-14T10:37:35.332Z,58.43
2024-02-14T10:39:37.743Z,58.62
2024-02-14T10:41:39.955Z,58.83
2024-02-14T10:43:42.527Z,57.75
2024-02-14T10:45:44.711Z,57.34
2024-02-14T10:47:49.167Z,58.13
2024-02-14T10:49:53.067Z,59.20
2024-02-14T10:51:55.298Z,59.22
2024-02-14T10:53:57.838Z,57.69
2024-02-14T10:56:00.145Z,59.37
2024-02-14T10:58:02.677Z,58.22
2024-02-14T11:00:14.808Z,56.68
2024-02-14T11:02:17.180Z,57.48
2024-02-14T11:04:19.634Z,58.38
2024-02-14T11:06:21.941Z,58.26
2024-02-14T11:08:26.011Z,58.16
2024-02-14T11:10:29.173Z,57.96
2024-02-14T11:12:38.258Z,57.86
2024-02-14T11:14:43.544Z,57.69
2024-02-14T11:16:47.097Z,58.27
2024-02-14T11:18:49.351Z,57.03
2024-02-14T11:20:51.829Z,56.69
2024-02-14T11:22:59.368Z,56.96
2024-02-14T11:25:09.084Z,57.70
2024-02-14T11:27:26.785Z,57.95
2024-02-14T11:29:34.669Z,56.21
2024-02-14T11:31:37.186Z,57.23
2024-02-14T11:33:39.639Z,57.36
2024-02-14T11:35:42.786Z,57.91
2024-02-14T11:37:44.886Z,56.33
2024-02-14T11:39:47.959Z,55.54
2024-02-14T11:41:50.218Z,56.99
2024-02-14T11:43:53.169Z,57.66
2024-02-14T11:45:55.491Z,56.86
2024-02-14T11:47:57.877Z,56.76
2024-02-14T11:50:00.208Z,56.74
2024-02-14T11:52:02.544Z,56.51
2024-02-14T11:54:10.646Z,56.80
2024-02-14T11:56:13.502Z,56.65
2024-02-14T11:58:17.602Z,56.61
2024-02-14T12:00:20.171Z,55.76
2024-02-14T12:02:22.331Z,56.34
2024-02-14T12:04:24.535Z,55.99
2024-02-14T12:06:27.282Z,55.69
2024-02-14T12:08:29.533Z,55.58
2024-02-14T12:10:33.888Z,55.82
2024-02-14T12:12:37.962Z,54.98
2024-02-14T12:14:40.092Z,55.28
2024-02-14T12:16:42.254Z,54.02
2024-02-14T12:18:45.400Z,53.62
2024-02-14T12:20:53.940Z,53.02
2024-02-14T12:22:58.432Z,53.53
2024-02-14T12:25:00.911Z,54.61
2024-02-14T12:27:03.184Z,54.55
2024-02-14T12:29:05.998Z,54.47
2024-02-14T12:31:08.171Z,54.32
2024-02-14T12:33:15.390Z,54.11
2024-02-14T12:35:19.406Z,52.82
2024-02-14T12:37:21.639Z,52.67
2024-02-14T12:39:24.192Z,53.97
2024-02-14T12:41:31.122Z,55.26
2024-02-14T12:43:33.463Z,55.22
2024-02-14T12:45:36.254Z,55.63
2024-02-14T12:47:38.513Z,55.04
2024-02-14T12:49:40.722Z,56.18
2024-02-14T12:51:43.744Z,55.77
2024-02-14T12:53:45.964Z,55.77
2024-02-14T12:55:49.034Z,56.81
2024-02-14T12:57:51.197Z,56.99
2024-02-14T12:59:53.439Z,55.91
2024-02-14T13:01:55.646Z,55.62
2024-02-14T13:03:57.860Z,55.66
2024-02-14T13:06:00.474Z,54.92
2024-02-14T13:08:02.761Z,55.51
2024-02-14T13:10:05.222Z,56.08
2024-02-14T13:12:11.118Z,56.57
2024-02-14T13:14:13.303Z,56.46
2024-02-14T13:16:15.507Z,56.64
2024-02-14T13:18:18.162Z,57.18
2024-02-14T13:20:20.523Z,57.70
2024-02-14T13:22:22.985Z,57.59
2024-02-14T13:24:25.222Z,57.87
2024-02-14T13:26:29.642Z,58.70
2024-02-14T13:28:31.887Z,59.27
2024-02-14T13:30:34.315Z,59.54
2024-02-14T13:32:36.577Z,60.14
2024-02-14T13:34:39.583Z,59.80
2024-02-14T13:36:41.884Z,60.08
2024-02-14T13:38:46.218Z,60.52
2024-02-14T13:40:48.475Z,60.50
2024-02-14T13:42:50.642Z,60.82
2024-02-14T13:44:55.389Z,60.71
2024-02-14T13:46:57.907Z,60.77
2024-02-14T13:49:00.436Z,60.70
2024-02-14T13:51:04.754Z,61.48
2024-02-14T13:53:08.671Z,61.52
2024-02-14T13:55:10.909Z,61.44
2024-02-14T13:57:13.265Z,61.56
2024-02-14T13:59:15.816Z,61.98
2024-02-14T14:01:18.821Z,62.42
2024-02-14T14:03:21.075Z,62.67
2024-02-14T14:05:23.529Z,62.85
2024-02-14T14:07:25.720Z,62.59
2024-02-14T14:09:27.903Z,62.73
2024-02-14T14:11:30.464Z,62.46
2024-02-14T14:13:34.773Z,63.12
2024-02-14T14:15:37.264Z,63.26
2024-02-14T14:17:39.821Z,63.66
2024-02-14T14:19:42.389Z,63.93
2024-02-14T14:21:44.529Z,64.41
2024-02-14T14:23:48.422Z,65.07
2024-02-14T14:25:50.878Z,65.12
2024-02-14T14:27:53.038Z,65.34
2024-02-14T14:29:55.272Z,65.27
2024-02-14T14:31:58.349Z,66.24
2024-02-14T14:34:00.876Z,66.20
2024-02-14T14:36:04.541Z,67.28
2024-02-14T14:38:07.796Z,66.63
2024-02-14T14:40:11.928Z,67.31
2024-02-14T14:42:14.092Z,67.64
2024-02-14T14:44:16.619Z,67.59
2024-02-14T14:46:21.188Z,67.71
2024-02-14T14:48:24.033Z,68.14
2024-02-14T14:50:26.739Z,68.77
2024-02-14T14:52:28.938Z,68.73
2024-02-14T14:54:31.287Z,69.06
2024-02-14T14:56:33.873Z,69.55
2024-02-14T14:58:37.445Z,70.00
2024-02-14T15:00:39.928Z,69.86
2024-02-14T15:02:42.826Z,70.24
2024-02-14T15:04:47.701Z,71.11
2024-02-14T15:06:52.013Z,71.20
2024-02-14T15:08:54.599Z,71.81
2024-02-14T15:10:57.291Z,73.03
2024-02-14T15:12:59.714Z,72.98
2024-02-14T15:15:03.392Z,73.52
2024-02-14T15:17:06.521Z,73.27
2024-02-14T15:19:08.866Z,73.78
2024-02-14T15:21:17.194Z,75.05
2024-02-14T15:23:19.408Z,74.64
2024-02-14T15:25:21.591Z,74.99
2024-02-14T15:27:25.177Z,74.90
2024-02-14T15:29:49.522Z,75.84
2024-02-14T15:32:16.089Z,75.77
2024-02-14T15:34:20.962Z,75.83
2024-02-14T15:36:23.651Z,76.74
2024-02-14T15:38:25.813Z,77.60
2024-02-14T15:40:28.735Z,77.86
2024-02-14T15:42:30.909Z,77.98
2024-02-14T15:44:33.130Z,78.28
2024-02-14T15:46:35.324Z,78.85
2024-02-14T15:48:37.668Z,78.66
2024-02-14T15:50:40.302Z,79.43
2024-02-14T15:52:42.505Z,79.35
2024-02-14T15:54:46.107Z,79.58
2024-02-14T15:56:48.722Z,79.73
2024-02-14T15:58:53.686Z,80.28
2024-02-14T16:00:57.076Z,80.00
2024-02-14T16:03:00.593Z,80.10
2024-02-14T16:05:04.493Z,80.61
2024-02-14T16:07:06.703Z,80.24
2024-02-14T16:09:08.877Z,80.75
2024-02-14T16:11:11.506Z,80.71
2024-02-14T16:13:13.750Z,81.76
2024-02-14T16:15:20.230Z,81.34
2024-02-14T16:17:22.537Z,81.54
2024-02-14T16:19:25.197Z,81.53
2024-02-14T16:21:28.997Z,82.22
2024-02-14T16:23:31.453Z,82.02
2024-02-14T16:25:36.820Z,81.58
2024-02-14T16:27:40.313Z,81.73
2024-02-14T16:29:42.542Z,81.93
2024-02-14T16:31:48.381Z,82.08
2024-02-14T16:33:50.957Z,82.25
2024-02-14T16:35:55.243Z,82.04
2024-02-14T16:37:58.370Z,82.27
2024-02-14T16:40:00.698Z,82.41
2024-02-14T16:42:03.377Z,82.51
2024-02-14T16:44:06.849Z,83.25
2024-02-14T16:46:09.141Z,82.25
2024-02-14T16:48:11.379Z,82.56
2024-02-14T16:50:13.890Z,82.78
2024-02-14T16:52:16.175Z,82.92
2024-02-14T16:54:19.032Z,82.86
2024-02-14T16:56:21.125Z,82.89
2024-02-14T16:58:23.381Z,82.97
2024-02-14T17:00:25.681Z,82.87
2024-02-14T17:02:27.875Z,83.17
2024-02-14T17:04:30.234Z,83.51
2024-02-14T17:06:32.904Z,83.45
2024-02-14T17:08:35.212Z,83.95
2024-02-14T17:10:37.476Z,83.58
2024-02-14T17:12:39.669Z,83.55
2024-02-14T17:14:43.858Z,83.24
2024-02-14T17:16:48.768Z,83.29
2024-02-14T17:18:51.008Z,83.48
2024-02-14T17:20:53.368Z,83.36
2024-02-14T17:22:55.660Z,83.37
2024-02-14T17:24:57.942Z,83.73
2024-02-14T17:27:01.270Z,83.66
2024-02-14T17:29:05.210Z,83.74
2024-02-14T17:31:07.356Z,83.64
2024-02-14T17:33:09.571Z,83.89
2024-02-14T17:35:11.940Z,84.01
2024-02-14T17:37:14.095Z,83.96
2024-02-14T17:39:16.466Z,84.42
2024-02-14T17:41:19.542Z,83.88
2024-02-14T17:43:21.688Z,83.86
2024-02-14T17:45:24.725Z,84.00
2024-02-14T17:47:27.943Z,83.97
2024-02-14T17:49:30.773Z,83.84
2024-02-14T17:51:33.268Z,83.89
2024-02-14T17:53:35.425Z,83.96
2024-02-14T17:55:37.778Z,84.00
2024-02-14T17:57:39.924Z,84.01
2024-02-14T17:59:42.199Z,83.82
2024-02-14T18:01:44.365Z,83.97
2024-02-14T18:03:46.468Z,83.77
2024-02-14T18:05:48.861Z,83.96
2024-02-14T18:07:51.219Z,83.91
2024-02-14T18:09:53.375Z,83.67
2024-02-14T18:11:55.654Z,83.50
2024-02-14T18:13:58.591Z,83.78
2024-02-14T18:16:01.128Z,83.67
2024-02-14T18:18:05.407Z,83.49
2024-02-14T18:20:08.936Z,83.46
2024-02-14T18:22:11.499Z,83.44
2024-02-14T18:24:14.237Z,83.57
2024-02-14T18:26:16.415Z,83.83
2024-02-14T18:28:18.620Z,83.62
2024-02-14T18:30:21.673Z,83.51
2024-02-14T18:32:25.034Z,83.62
2024-02-14T18:34:27.501Z,83.55
2024-02-14T18:36:30.016Z,83.94
2024-02-14T18:38:32.990Z,83.82
2024-02-14T18:40:35.848Z,83.57
2024-02-14T18:42:38.324Z,83.51
2024-02-14T18:44:41.959Z,83.61
2024-02-14T18:46:48.012Z,83.69
2024-02-14T18:48:50.448Z,83.57
2024-02-14T18:50:52.767Z,83.80
2024-02-14T18:52:55.202Z,83.58
2024-02-14T18:54:57.513Z,83.71
2024-02-14T18:56:59.912Z,83.71
2024-02-14T18:59:02.469Z,83.69
2024-02-14T19:01:05.112Z,83.67
2024-02-14T19:03:07.335Z,83.93
2024-02-14T19:05:10.183Z,83.81
2024-02-14T19:07:12.793Z,83.72
2024-02-14T19:09:14.964Z,84.43
2024-02-14T19:11:17.932Z,83.79
2024-02-14T19:13:23.898Z,83.57
2024-02-14T19:15:26.669Z,83.59
2024-02-14T19:17:29.712Z,83.51
2024-02-14T19:19:33.061Z,83.50
2024-02-14T19:21:35.160Z,83.42
2024-02-14T19:23:40.041Z,83.53
2024-02-14T19:25:42.255Z,83.27
2024-02-14T19:27:44.390Z,83.27
2024-02-14T19:29:46.556Z,83.26
2024-02-14T19:31:48.715Z,83.42
2024-02-14T19:33:51.277Z,83.45
2024-02-14T19:35:56.268Z,83.39
2024-02-14T19:37:59.989Z,83.24
2024-02-14T19:40:02.245Z,83.30
2024-02-14T19:42:05.480Z,83.26
2024-02-14T19:44:07.723Z,83.21
2024-02-14T19:46:12.115Z,83.19
2024-02-14T19:48:14.575Z,83.06
2024-02-14T19:50:16.714Z,83.13
2024-02-14T19:52:18.985Z,83.15
2024-02-14T19:54:22.058Z,82.96
2024-02-14T19:56:24.434Z,82.69
2024-02-14T19:58:26.647Z,82.63
2024-02-14T20:00:29.520Z,82.64
2024-02-14T20:02:32.857Z,82.21
2024-02-14T20:04:35.580Z,82.44
2024-02-14T20:06:40.705Z,82.31
2024-02-14T20:08:43.037Z,82.06
2024-02-14T20:10:45.310Z,82.00
2024-02-14T20:12:47.452Z,81.50
2024-02-14T20:14:56.435Z,81.53
2024-02-14T20:16:59.336Z,81.31
2024-02-14T20:19:04.790Z,81.47
2024-02-14T20:21:08.310Z,81.11
2024-02-14T20:23:10.533Z,81.21
2024-02-14T20:25:13.991Z,81.15
2024-02-14T20:27:16.292Z,81.30
2024-02-14T20:29:18.595Z,81.27
2024-02-14T20:31:20.659Z,81.12
2024-02-14T20:33:25.958Z,81.23
2024-02-14T20:35:29.472Z,81.20
2024-02-14T20:37:32.090Z,81.03
2024-02-14T20:39:34.334Z,81.11
2024-02-14T20:41:37.014Z,81.15
2024-02-14T20:43:39.244Z,81.20
2024-02-14T20:45:41.519Z,81.05
2024-02-14T20:47:46.809Z,81.11
2024-02-14T20:49:49.295Z,81.11
2024-02-14T20:51:51.536Z,81.11
2024-02-14T20:53:53.774Z,81.12
2024-02-14T20:55:55.987Z,81.39
2024-02-14T20:57:58.373Z,81.45
2024-02-14T21:00:00.533Z,81.23
2024-02-14T21:02:02.726Z,81.48
2024-02-14T21:04:05.617Z,81.27
2024-02-14T21:06:08.329Z,81.32
2024-02-14T21:08:13.846Z,81.30
2024-02-14T21:10:18.858Z,81.40
2024-02-14T21:12:24.267Z,81.48
2024-02-14T21:14:26.842Z,81.34
2024-02-14T21:16:28.979Z,81.37
2024-02-14T21:18:31.371Z,81.37
2024-02-14T21:20:33.683Z,81.38
2024-02-14T21:22:36.761Z,81.43
2024-02-14T21:24:41.071Z,81.47
2024-02-14T21:26:45.995Z,81.39
2024-02-14T21:28:48.427Z,81.52
2024-02-14T21:30:50.519Z,81.71
2024-02-14T21:32:53.553Z,81.83
2024-02-14T21:34:55.821Z,81.90
2024-02-14T21:36:58.304Z,81.61
2024-02-14T21:39:00.572Z,81.70
2024-02-14T21:41:02.770Z,81.67
2024-02-14T21:43:06.016Z,81.74
2024-02-14T21:45:09.042Z,82.03
2024-02-14T21:47:11.754Z,81.88
2024-02-14T21:49:21.033Z,81.76
2024-02-14T21:51:23.374Z,81.97
2024-02-14T21:53:25.560Z,81.98
2024-02-14T21:55:27.669Z,82.18
2024-02-14T21:57:29.836Z,82.49
2024-02-14T21:59:32.011Z,82.44
2024-02-14T22:01:34.121Z,82.72
2024-02-14T22:03:38.424Z,83.34
2024-02-14T22:05:40.726Z,83.82
2024-02-14T22:07:43.021Z,84.14
2024-02-14T22:09:45.244Z,84.20
2024-02-14T22:11:47.751Z,83.95
2024-02-14T22:13:49.987Z,84.03
2024-02-14T22:15:52.194Z,84.52
2024-02-14T22:17:55.555Z,84.43
2024-02-14T22:19:57.819Z,84.70
2024-02-14T22:22:00.312Z,84.86
2024-02-14T22:24:02.606Z,85.50
2024-02-14T22:26:05.891Z,86.04
2024-02-14T22:28:08.117Z,86.05
2024-02-14T22:30:11.203Z,86.40
2024-02-14T22:32:15.560Z,86.80
2024-02-14T22:34:17.829Z,87.86
2024-02-14T22:36:20.187Z,88.19
2024-02-14T22:38:23.816Z,88.69
2024-02-14T22:40:26.087Z,88.64
2024-02-14T22:42:28.261Z,88.34
2024-02-14T22:44:30.407Z,88.59
2024-02-14T22:46:33.095Z,88.83
2024-02-14T22:48:35.262Z,89.67
2024-02-14T22:50:37.508Z,89.21
2024-02-14T22:52:39.623Z,89.31
2024-02-14T22:54:41.778Z,89.23
2024-02-14T22:56:43.978Z,89.65
2024-02-14T22:58:46.133Z,89.22
2024-02-14T23:00:48.380Z,89.51
2024-02-14T23:02:51.048Z,89.82
2024-02-14T23:04:53.176Z,90.15
2024-02-14T23:06:55.266Z,89.66
2024-02-14T23:08:57.555Z,89.44
2024-02-14T23:10:59.671Z,89.80
2024-02-14T23:13:01.779Z,89.87
2024-02-14T23:15:06.858Z,90.51
2024-02-14T23:17:09.084Z,89.97
2024-02-14T23:19:11.354Z,89.93
2024-02-14T23:21:14.168Z,90.30
2024-02-14T23:23:16.314Z,90.59
2024-02-14T23:25:18.497Z,90.20
2024-02-14T23:27:21.981Z,90.41
2024-02-14T23:29:24.288Z,90.33
2024-02-14T23:31:27.854Z,90.22
2024-02-14T23:33:30.405Z,90.56
2024-02-14T23:35:32.745Z,90.77
2024-02-14T23:37:34.958Z,90.72
2024-02-14T23:39:37.202Z,90.70
2024-02-14T23:41:39.394Z,90.53
2024-02-14T23:43:41.487Z,90.76
2024-02-14T23:45:43.706Z,90.47
2024-02-14T23:47:46.068Z,90.61
2024-02-14T23:49:48.327Z,90.99
2024-02-14T23:51:50.410Z,91.14
2024-02-14T23:53:52.566Z,91.42
2024-02-14T23:55:57.737Z,91.17
2024-02-14T23:58:00.093Z,91.28
